RYR22AC EPWA-LEPA
Flight info
| Callsign | RYR22AC |
|---|---|
| Flight time | N/A |
| Altitude | 36000 |
| Route | SOXER DCT VAMPU N869 UVIVI DCT NUDRO DCT ELVOT DCT BUDEX DCT DETSA/N0444F370 DCT PIDAD DCT TALEP DCT RARQU DCT BALEN/N0400F290 UT250 RIXOT |
| Aircraft | B738/M-SDE2E3FGHIRWXY/LB1 |
Departure
| Time | N/A |
|---|---|
| Airport | Warsaw Chopin Airport (EPWA) |
Arrival
| Time | 2026-05-07 18:32 |
|---|---|
| Airport | Palma de Mallorca Airport (LEPA) |
| Time | Latitude | Longitude | Altitude | Speed | Heading |
|---|---|---|---|---|---|
| 2026-05-07 17:49 | 40.86984 | 5.54613 | 35836 ft | 370 kts | 232° |
| 2026-05-07 17:49 | 40.85513 | 5.51861 | 35585 ft | 361 kts | 232° |
| 2026-05-07 17:50 | 40.84547 | 5.50058 | 35322 ft | 358 kts | 232° |
| 2026-05-07 17:50 | 40.82653 | 5.46533 | 34868 ft | 353 kts | 231° |
| 2026-05-07 17:50 | 40.81694 | 5.44751 | 34612 ft | 351 kts | 231° |
| 2026-05-07 17:50 | 40.80284 | 5.42134 | 34250 ft | 348 kts | 231° |
| 2026-05-07 17:51 | 40.78884 | 5.39537 | 33869 ft | 346 kts | 231° |
| 2026-05-07 17:51 | 40.77491 | 5.36957 | 33435 ft | 344 kts | 231° |
| 2026-05-07 17:51 | 40.76108 | 5.34397 | 33049 ft | 341 kts | 231° |
| 2026-05-07 17:51 | 40.74739 | 5.31863 | 32723 ft | 338 kts | 231° |
| 2026-05-07 17:52 | 40.73375 | 5.29342 | 32335 ft | 336 kts | 232° |
| 2026-05-07 17:52 | 40.72026 | 5.26849 | 31977 ft | 333 kts | 232° |
| 2026-05-07 17:52 | 40.70702 | 5.24404 | 31631 ft | 331 kts | 232° |
| 2026-05-07 17:52 | 40.69353 | 5.21916 | 31280 ft | 328 kts | 232° |
| 2026-05-07 17:53 | 40.68047 | 5.19508 | 30935 ft | 326 kts | 232° |
| 2026-05-07 17:53 | 40.66733 | 5.17088 | 30598 ft | 324 kts | 232° |
| 2026-05-07 17:53 | 40.65409 | 5.14653 | 30253 ft | 322 kts | 232° |
| 2026-05-07 17:53 | 40.64127 | 5.12294 | 29911 ft | 320 kts | 232° |
| 2026-05-07 17:54 | 40.62837 | 5.09924 | 29513 ft | 318 kts | 232° |
| 2026-05-07 17:54 | 40.61556 | 5.07570 | 29143 ft | 315 kts | 232° |
| 2026-05-07 17:54 | 40.60283 | 5.05234 | 28784 ft | 313 kts | 232° |
| 2026-05-07 17:54 | 40.59017 | 5.02913 | 28429 ft | 311 kts | 232° |
| 2026-05-07 17:55 | 40.57757 | 5.00604 | 28086 ft | 312 kts | 232° |
| 2026-05-07 17:55 | 40.56531 | 4.98362 | 27763 ft | 323 kts | 232° |
| 2026-05-07 17:55 | 40.55194 | 4.95920 | 27401 ft | 333 kts | 232° |
| 2026-05-07 17:55 | 40.53843 | 4.93447 | 27021 ft | 332 kts | 232° |
| 2026-05-07 17:56 | 40.52498 | 4.90989 | 26632 ft | 330 kts | 231° |
| 2026-05-07 17:56 | 40.51164 | 4.88552 | 26257 ft | 328 kts | 231° |
| 2026-05-07 17:56 | 40.49837 | 4.86131 | 25888 ft | 326 kts | 231° |
| 2026-05-07 17:56 | 40.48515 | 4.83719 | 25526 ft | 324 kts | 231° |
| 2026-05-07 17:57 | 40.47201 | 4.81324 | 25171 ft | 323 kts | 231° |
| 2026-05-07 17:57 | 40.46334 | 4.79746 | 24929 ft | 322 kts | 231° |
| 2026-05-07 17:57 | 40.44583 | 4.76564 | 24442 ft | 321 kts | 231° |
| 2026-05-07 17:57 | 40.43276 | 4.74197 | 24082 ft | 320 kts | 231° |
| 2026-05-07 17:58 | 40.41967 | 4.71843 | 23738 ft | 319 kts | 231° |
| 2026-05-07 17:58 | 40.40657 | 4.69495 | 23355 ft | 318 kts | 231° |
| 2026-05-07 17:58 | 40.39352 | 4.67157 | 22972 ft | 317 kts | 231° |
| 2026-05-07 17:58 | 40.38063 | 4.64835 | 22720 ft | 313 kts | 232° |
| 2026-05-07 17:59 | 40.36791 | 4.62535 | 22495 ft | 314 kts | 232° |
| 2026-05-07 17:59 | 40.35492 | 4.60186 | 22263 ft | 322 kts | 232° |
| 2026-05-07 17:59 | 40.34166 | 4.57788 | 22046 ft | 326 kts | 232° |
| 2026-05-07 17:59 | 40.32854 | 4.55416 | 21813 ft | 325 kts | 232° |
| 2026-05-07 18:00 | 40.31529 | 4.53021 | 21572 ft | 324 kts | 232° |
| 2026-05-07 18:00 | 40.30210 | 4.50639 | 21339 ft | 323 kts | 232° |
| 2026-05-07 18:00 | 40.28893 | 4.48263 | 21108 ft | 322 kts | 232° |
| 2026-05-07 18:00 | 40.27582 | 4.45900 | 20880 ft | 321 kts | 232° |
| 2026-05-07 18:01 | 40.26271 | 4.43539 | 20652 ft | 320 kts | 232° |
| 2026-05-07 18:01 | 40.24962 | 4.41184 | 20424 ft | 320 kts | 232° |
| 2026-05-07 18:01 | 40.23655 | 4.38834 | 20197 ft | 319 kts | 232° |
| 2026-05-07 18:01 | 40.22347 | 4.36484 | 19968 ft | 319 kts | 232° |
| 2026-05-07 18:02 | 40.19731 | 4.31790 | 19512 ft | 319 kts | 232° |
| 2026-05-07 18:02 | 40.18423 | 4.29446 | 19281 ft | 319 kts | 232° |
| 2026-05-07 18:02 | 40.17116 | 4.27104 | 19056 ft | 319 kts | 232° |
| 2026-05-07 18:03 | 40.15807 | 4.24761 | 18829 ft | 319 kts | 232° |
| 2026-05-07 18:03 | 40.14498 | 4.22419 | 18604 ft | 319 kts | 232° |
| 2026-05-07 18:03 | 40.13187 | 4.20077 | 18367 ft | 319 kts | 232° |
| 2026-05-07 18:03 | 40.11876 | 4.17737 | 18128 ft | 319 kts | 230° |
| 2026-05-07 18:04 | 40.10562 | 4.15393 | 17882 ft | 319 kts | 231° |
| 2026-05-07 18:04 | 40.09252 | 4.13057 | 17633 ft | 319 kts | 231° |
| 2026-05-07 18:04 | 40.07943 | 4.10722 | 17396 ft | 318 kts | 231° |
| 2026-05-07 18:04 | 40.06636 | 4.08395 | 17167 ft | 317 kts | 231° |
| 2026-05-07 18:05 | 40.05334 | 4.06078 | 16929 ft | 316 kts | 231° |
| 2026-05-07 18:05 | 40.04035 | 4.03767 | 16712 ft | 315 kts | 231° |
| 2026-05-07 18:05 | 40.02741 | 4.01469 | 16481 ft | 314 kts | 231° |
| 2026-05-07 18:05 | 40.01492 | 3.99251 | 16264 ft | 313 kts | 231° |
| 2026-05-07 18:06 | 40.00202 | 3.96963 | 16046 ft | 313 kts | 231° |
| 2026-05-07 18:06 | 39.98917 | 3.94685 | 15822 ft | 312 kts | 231° |
| 2026-05-07 18:06 | 39.97633 | 3.92410 | 15591 ft | 311 kts | 231° |
| 2026-05-07 18:06 | 39.96352 | 3.90141 | 15376 ft | 310 kts | 231° |
| 2026-05-07 18:07 | 39.95092 | 3.87911 | 15155 ft | 309 kts | 231° |
| 2026-05-07 18:07 | 39.93807 | 3.85638 | 14931 ft | 308 kts | 231° |
| 2026-05-07 18:07 | 39.92536 | 3.83394 | 14714 ft | 307 kts | 231° |
| 2026-05-07 18:07 | 39.91284 | 3.81185 | 14503 ft | 307 kts | 231° |
| 2026-05-07 18:08 | 39.90018 | 3.78951 | 14289 ft | 307 kts | 231° |
| 2026-05-07 18:08 | 39.88750 | 3.76718 | 14070 ft | 306 kts | 231° |
| 2026-05-07 18:08 | 39.87485 | 3.74489 | 13849 ft | 306 kts | 231° |
| 2026-05-07 18:08 | 39.86219 | 3.72261 | 13614 ft | 306 kts | 231° |
| 2026-05-07 18:09 | 39.84949 | 3.70027 | 13368 ft | 306 kts | 231° |
| 2026-05-07 18:09 | 39.83684 | 3.67802 | 13138 ft | 306 kts | 231° |
| 2026-05-07 18:09 | 39.82422 | 3.65585 | 12914 ft | 305 kts | 231° |
| 2026-05-07 18:09 | 39.81159 | 3.63367 | 12693 ft | 304 kts | 231° |
| 2026-05-07 18:10 | 39.79900 | 3.61158 | 12474 ft | 304 kts | 231° |
| 2026-05-07 18:10 | 39.78644 | 3.58957 | 12253 ft | 303 kts | 231° |
| 2026-05-07 18:10 | 39.77389 | 3.56758 | 12038 ft | 303 kts | 231° |
| 2026-05-07 18:10 | 39.76134 | 3.54561 | 11827 ft | 302 kts | 231° |
| 2026-05-07 18:11 | 39.74891 | 3.52384 | 11608 ft | 298 kts | 231° |
| 2026-05-07 18:11 | 39.74074 | 3.50954 | 11468 ft | 296 kts | 231° |
| 2026-05-07 18:11 | 39.72435 | 3.48090 | 11188 ft | 294 kts | 231° |
| 2026-05-07 18:11 | 39.71217 | 3.45964 | 10977 ft | 293 kts | 231° |
| 2026-05-07 18:12 | 39.69999 | 3.43839 | 10764 ft | 293 kts | 231° |
| 2026-05-07 18:12 | 39.68921 | 3.41594 | 10554 ft | 294 kts | 240° |
| 2026-05-07 18:12 | 39.68024 | 3.39219 | 10346 ft | 294 kts | 242° |
| 2026-05-07 18:12 | 39.67150 | 3.36820 | 10139 ft | 294 kts | 242° |
| 2026-05-07 18:13 | 39.66287 | 3.34476 | 9934 ft | 290 kts | 242° |
| 2026-05-07 18:13 | 39.65398 | 3.32111 | 9708 ft | 286 kts | 242° |
| 2026-05-07 18:13 | 39.64519 | 3.29807 | 9483 ft | 283 kts | 242° |
| 2026-05-07 18:13 | 39.63642 | 3.27528 | 9280 ft | 282 kts | 242° |
| 2026-05-07 18:14 | 39.62763 | 3.25251 | 9097 ft | 284 kts | 241° |
| 2026-05-07 18:14 | 39.61873 | 3.22951 | 8869 ft | 287 kts | 241° |
| 2026-05-07 18:14 | 39.60977 | 3.20637 | 8659 ft | 287 kts | 241° |
| 2026-05-07 18:14 | 39.60086 | 3.18336 | 8458 ft | 284 kts | 241° |
| 2026-05-07 18:15 | 39.59206 | 3.16063 | 8255 ft | 280 kts | 241° |
| 2026-05-07 18:15 | 39.58336 | 3.13817 | 8052 ft | 278 kts | 241° |
| 2026-05-07 18:15 | 39.57473 | 3.11593 | 7857 ft | 275 kts | 241° |
| 2026-05-07 18:15 | 39.56611 | 3.09373 | 7668 ft | 276 kts | 241° |
| 2026-05-07 18:16 | 39.55748 | 3.07151 | 7471 ft | 278 kts | 241° |
| 2026-05-07 18:16 | 39.54877 | 3.04913 | 7274 ft | 278 kts | 242° |
| 2026-05-07 18:16 | 39.54009 | 3.02678 | 7063 ft | 278 kts | 242° |
| 2026-05-07 18:16 | 39.53139 | 3.00446 | 6872 ft | 277 kts | 242° |
| 2026-05-07 18:17 | 39.52295 | 2.98279 | 6674 ft | 278 kts | 242° |
| 2026-05-07 18:17 | 39.51425 | 2.96047 | 6481 ft | 277 kts | 242° |
| 2026-05-07 18:17 | 39.50559 | 2.93826 | 6304 ft | 275 kts | 241° |
| 2026-05-07 18:17 | 39.49703 | 2.91633 | 6104 ft | 271 kts | 242° |
| 2026-05-07 18:18 | 39.48861 | 2.89472 | 5919 ft | 268 kts | 242° |
| 2026-05-07 18:18 | 39.48021 | 2.87325 | 5740 ft | 268 kts | 241° |
| 2026-05-07 18:18 | 39.47169 | 2.85149 | 5554 ft | 273 kts | 242° |
| 2026-05-07 18:18 | 39.46309 | 2.82942 | 5386 ft | 277 kts | 242° |
| 2026-05-07 18:19 | 39.45410 | 2.80737 | 5143 ft | 276 kts | 239° |
| 2026-05-07 18:19 | 39.44556 | 2.78569 | 4948 ft | 273 kts | 243° |
| 2026-05-07 18:19 | 39.43722 | 2.76346 | 4714 ft | 270 kts | 243° |
| 2026-05-07 18:19 | 39.43192 | 2.74056 | 4510 ft | 265 kts | 262° |
| 2026-05-07 18:20 | 39.42977 | 2.71715 | 4383 ft | 265 kts | 263° |
| 2026-05-07 18:20 | 39.42799 | 2.69352 | 4221 ft | 269 kts | 262° |
| 2026-05-07 18:20 | 39.42634 | 2.66929 | 3963 ft | 270 kts | 264° |
| 2026-05-07 18:20 | 39.42409 | 2.64554 | 3779 ft | 260 kts | 263° |
| 2026-05-07 18:21 | 39.42096 | 2.62320 | 3577 ft | 245 kts | 248° |
| 2026-05-07 18:21 | 39.41367 | 2.60380 | 3432 ft | 241 kts | 242° |
| 2026-05-07 18:21 | 39.40587 | 2.58438 | 3311 ft | 245 kts | 242° |
| 2026-05-07 18:21 | 39.39797 | 2.56473 | 3139 ft | 247 kts | 242° |
| 2026-05-07 18:22 | 39.39009 | 2.54515 | 3038 ft | 245 kts | 242° |
| 2026-05-07 18:22 | 39.38476 | 2.53196 | 3008 ft | 245 kts | 242° |
| 2026-05-07 18:22 | 39.37434 | 2.50622 | 3002 ft | 243 kts | 242° |
| 2026-05-07 18:22 | 39.36652 | 2.48691 | 3000 ft | 242 kts | 242° |
| 2026-05-07 18:23 | 39.35865 | 2.46771 | 3022 ft | 243 kts | 240° |
| 2026-05-07 18:23 | 39.35099 | 2.44798 | 2988 ft | 248 kts | 252° |
| 2026-05-07 18:23 | 39.34837 | 2.42607 | 3010 ft | 248 kts | 268° |
| 2026-05-07 18:23 | 39.34892 | 2.40392 | 2985 ft | 248 kts | 288° |
| 2026-05-07 18:24 | 39.35813 | 2.38547 | 3014 ft | 248 kts | 324° |
| 2026-05-07 18:24 | 39.37376 | 2.37725 | 3005 ft | 245 kts | 1° |
| 2026-05-07 18:24 | 39.38976 | 2.38161 | 2966 ft | 228 kts | 27° |
| 2026-05-07 18:24 | 39.40142 | 2.39362 | 2962 ft | 207 kts | 58° |
| 2026-05-07 18:25 | 39.40464 | 2.41048 | 3024 ft | 186 kts | 86° |
| 2026-05-07 18:25 | 39.40808 | 2.42557 | 2991 ft | 175 kts | 47° |
| 2026-05-07 18:25 | 39.41646 | 2.43686 | 3007 ft | 174 kts | 52° |
| 2026-05-07 18:25 | 39.42381 | 2.44939 | 3015 ft | 177 kts | 57° |
| 2026-05-07 18:26 | 39.43046 | 2.46276 | 3002 ft | 176 kts | 60° |
| 2026-05-07 18:26 | 39.43721 | 2.47600 | 3002 ft | 175 kts | 57° |
| 2026-05-07 18:26 | 39.44364 | 2.48973 | 2847 ft | 184 kts | 59° |
| 2026-05-07 18:26 | 39.45081 | 2.50336 | 2670 ft | 181 kts | 58° |
| 2026-05-07 18:27 | 39.45656 | 2.51719 | 2701 ft | 173 kts | 65° |
| 2026-05-07 18:27 | 39.46249 | 2.53060 | 2704 ft | 174 kts | 53° |
| 2026-05-07 18:27 | 39.46904 | 2.54385 | 2650 ft | 184 kts | 64° |
| 2026-05-07 18:27 | 39.47333 | 2.55367 | 2537 ft | 191 kts | 60° |
| 2026-05-07 18:28 | 39.48257 | 2.57227 | 2222 ft | 175 kts | 41° |
| 2026-05-07 18:28 | 39.49158 | 2.58194 | 1944 ft | 161 kts | 59° |
| 2026-05-07 18:28 | 39.49387 | 2.59517 | 1791 ft | 146 kts | 84° |
| 2026-05-07 18:28 | 39.49777 | 2.60674 | 1714 ft | 139 kts | 51° |
| 2026-05-07 18:29 | 39.50354 | 2.61672 | 1729 ft | 144 kts | 57° |
| 2026-05-07 18:29 | 39.50893 | 2.62824 | 1756 ft | 147 kts | 59° |
| 2026-05-07 18:29 | 39.51390 | 2.63917 | 1714 ft | 138 kts | 61° |
| 2026-05-07 18:29 | 39.51856 | 2.64980 | 1659 ft | 136 kts | 60° |
| 2026-05-07 18:30 | 39.52307 | 2.65979 | 1332 ft | 124 kts | 60° |
| 2026-05-07 18:30 | 39.52753 | 2.66913 | 921 ft | 125 kts | 58° |
| 2026-05-07 18:30 | 39.53207 | 2.67880 | 647 ft | 124 kts | 57° |
| 2026-05-07 18:30 | 39.53645 | 2.68829 | 433 ft | 127 kts | 58° |
| 2026-05-07 18:31 | 39.54119 | 2.69809 | 295 ft | 128 kts | 58° |
| 2026-05-07 18:31 | 39.54573 | 2.70769 | 116 ft | 122 kts | 58° |
| 2026-05-07 18:31 | 39.54998 | 2.71676 | 30 ft | 110 kts | 59° |
| 2026-05-07 18:31 | 39.55322 | 2.72352 | 28 ft | 66 kts | 58° |
| 2026-05-07 18:32 | 39.55461 | 2.72678 | 28 ft | 9 kts | 72° |
| 2026-05-07 18:32 | 39.55481 | 2.72754 | 29 ft | 9 kts | 78° |
| 2026-05-07 18:32 | 39.55494 | 2.72853 | 30 ft | 14 kts | 84° |
| 2026-05-07 18:32 | 39.55496 | 2.72970 | 31 ft | 9 kts | 87° |
| 2026-05-07 18:33 | 39.55497 | 2.72990 | 31 ft | 0 kts | 87° |
| 2026-05-07 18:33 | 39.55497 | 2.73043 | 31 ft | 11 kts | 93° |
| 2026-05-07 18:33 | 39.55462 | 2.73084 | 31 ft | 7 kts | 204° |
| 2026-05-07 18:33 | 39.55419 | 2.73010 | 29 ft | 12 kts | 239° |
| 2026-05-07 18:34 | 39.55348 | 2.72989 | 30 ft | 12 kts | 148° |
| 2026-05-07 18:34 | 39.55308 | 2.73021 | 30 ft | 7 kts | 149° |
| 2026-05-07 18:34 | 39.55264 | 2.73044 | 31 ft | 8 kts | 184° |
| 2026-05-07 18:34 | 39.55228 | 2.72994 | 30 ft | 7 kts | 239° |
| 2026-05-07 18:35 | 39.55200 | 2.72942 | 30 ft | 7 kts | 214° |
| 2026-05-07 18:35 | 39.55186 | 2.72947 | 30 ft | 2 kts | 158° |
| 2026-05-07 18:35 | 39.55178 | 2.72951 | 30 ft | 2 kts | 159° |
| 2026-05-07 18:35 | 39.55162 | 2.72958 | 29 ft | 2 kts | 161° |
| 2026-05-07 18:36 | 39.55155 | 2.72962 | 30 ft | 2 kts | 161° |
| 2026-05-07 18:36 | 39.55145 | 2.72966 | 30 ft | 2 kts | 161° |
| 2026-05-07 18:36 | 39.55135 | 2.72971 | 29 ft | 1 kts | 162° |
| 2026-05-07 18:36 | 39.55126 | 2.72974 | 30 ft | 1 kts | 162° |
| 2026-05-07 18:37 | 39.55124 | 2.72975 | 30 ft | 0 kts | 162° |